createdAt,value
2018-11-02T00:00:44.785Z,8.04
2018-11-02T00:01:44.772Z,8.08
2018-11-02T00:02:44.822Z,8.04
2018-11-02T00:03:44.836Z,8
2018-11-02T00:04:44.830Z,7.9
2018-11-02T00:05:59.591Z,7.93
2018-11-02T00:06:44.588Z,7.93
2018-11-02T00:07:45.354Z,7.98
2018-11-02T00:08:59.577Z,7.83
2018-11-02T00:09:44.385Z,7.8
2018-11-02T00:10:44.960Z,7.83
2018-11-02T00:11:44.940Z,7.85
2018-11-02T00:12:44.990Z,7.89
2018-11-02T00:13:45.041Z,7.87
2018-11-02T00:14:45.010Z,8.04
2018-11-02T00:15:45.009Z,8.01
2018-11-02T00:16:45.052Z,7.98
2018-11-02T00:17:44.985Z,8.1
2018-11-02T00:18:45.109Z,8.23
2018-11-02T00:19:45.083Z,8.23
2018-11-02T00:21:59.788Z,8.07
2018-11-02T00:22:44.861Z,8.07
2018-11-02T00:23:45.177Z,8.23
2018-11-02T00:24:45.174Z,8.22
2018-11-02T00:25:45.262Z,8.19
2018-11-02T00:26:44.671Z,8.08
2018-11-02T00:27:45.220Z,8.12
2018-11-02T00:28:59.904Z,8.01
2018-11-02T00:29:45.256Z,8.02
2018-11-02T00:30:44.751Z,8.01
2018-11-02T00:31:45.428Z,7.95
2018-11-02T00:32:45.299Z,8.07
2018-11-02T00:33:45.355Z,7.87
2018-11-02T00:34:45.086Z,7.85
2018-11-02T00:35:45.373Z,7.9
2018-11-02T00:38:00.045Z,7.86
2018-11-02T00:38:45.938Z,7.83
2018-11-02T00:39:45.437Z,7.92
2018-11-02T00:40:45.467Z,7.93
2018-11-02T00:41:45.216Z,7.85
2018-11-02T00:42:45.227Z,7.89
2018-11-02T00:43:45.239Z,7.82
2018-11-02T00:44:45.245Z,7.82
2018-11-02T00:45:45.586Z,7.77
2018-11-02T00:46:45.300Z,7.67
2018-11-02T00:47:45.424Z,7.82
2018-11-02T00:48:45.758Z,7.74
2018-11-02T00:49:45.632Z,7.72
2018-11-02T00:50:45.347Z,7.61
2018-11-02T00:51:45.707Z,7.53
2018-11-02T00:54:00.333Z,7.6
2018-11-02T00:54:45.733Z,7.6
2018-11-02T00:55:45.444Z,7.64
2018-11-02T00:56:45.477Z,7.67
2018-11-02T00:57:45.862Z,7.63
2018-11-02T00:58:45.485Z,7.64
2018-11-02T00:59:45.940Z,7.48
2018-11-02T01:00:45.785Z,7.49
2018-11-02T01:01:45.861Z,7.46
2018-11-02T01:02:45.812Z,7.45
2018-11-02T01:03:45.870Z,7.5
2018-11-02T01:04:46.227Z,7.43
2018-11-02T01:05:45.913Z,7.52
2018-11-02T01:06:45.907Z,7.49
2018-11-02T01:07:45.922Z,7.49
2018-11-02T01:09:00.592Z,7.39
2018-11-02T01:09:45.847Z,7.49
2018-11-02T01:10:45.705Z,7.49
2018-11-02T01:11:45.735Z,7.42
2018-11-02T01:12:46.059Z,7.28
2018-11-02T01:13:46.038Z,7.24
2018-11-02T01:14:46.027Z,7.27
2018-11-02T01:15:46.072Z,7.45
2018-11-02T01:16:46.093Z,7.34
2018-11-02T01:17:46.097Z,7.24
2018-11-02T01:19:46.435Z,7.1
2018-11-02T01:22:00.533Z,7.16
2018-11-02T01:22:46.198Z,7.12
2018-11-02T01:23:46.178Z,7.23
2018-11-02T01:24:45.954Z,7.25
2018-11-02T01:25:45.960Z,7.24
2018-11-02T01:26:45.967Z,7.21
2018-11-02T01:27:46.247Z,7.31
2018-11-02T01:28:46.288Z,7.23
2018-11-02T01:29:46.892Z,7.23
2018-11-02T01:30:46.332Z,7.46
2018-11-02T01:31:46.337Z,7.37
2018-11-02T01:32:46.378Z,7.34
2018-11-02T01:33:46.351Z,7.15
2018-11-02T01:34:46.400Z,7.2
2018-11-02T01:36:01.047Z,7.07
2018-11-02T01:36:46.432Z,6.98
2018-11-02T01:37:45.906Z,6.97
2018-11-02T01:38:45.910Z,6.89
2018-11-02T01:39:46.684Z,6.91
2018-11-02T01:41:01.125Z,6.84
2018-11-02T01:41:46.516Z,6.92
2018-11-02T01:42:46.496Z,6.84
2018-11-02T01:44:01.192Z,6.81
2018-11-02T01:44:46.566Z,6.88
2018-11-02T01:45:46.549Z,6.94
2018-11-02T01:46:46.316Z,6.95
2018-11-02T01:47:46.586Z,7.09
2018-11-02T01:49:46.731Z,7.06
2018-11-02T01:50:46.764Z,7.2
2018-11-02T01:51:46.666Z,7.13
2018-11-02T01:52:46.683Z,7.16
2018-11-02T01:53:46.450Z,7.15
2018-11-02T01:55:46.194Z,7.12
2018-11-02T01:57:46.750Z,7.25
2018-11-02T01:58:46.512Z,7.24
2018-11-02T01:59:46.792Z,7.12
2018-11-02T02:00:47.359Z,7.15
2018-11-02T02:02:46.840Z,7.13
2018-11-02T02:04:01.524Z,6.98
2018-11-02T02:04:46.911Z,7.02
2018-11-02T02:05:46.680Z,6.98
2018-11-02T02:06:46.900Z,6.95
2018-11-02T02:07:46.951Z,7.03
2018-11-02T02:08:46.973Z,6.98
2018-11-02T02:09:46.968Z,6.99
2018-11-02T02:10:46.724Z,7.03
2018-11-02T02:13:01.758Z,6.87
2018-11-02T02:13:47.060Z,6.8
2018-11-02T02:14:46.803Z,6.88
2018-11-02T02:15:47.090Z,6.94
2018-11-02T02:16:47.140Z,6.97
2018-11-02T02:17:46.845Z,6.97
2018-11-02T02:18:47.147Z,7.02
2018-11-02T02:20:47.176Z,7.07
2018-11-02T02:21:47.389Z,7.12
2018-11-02T02:22:47.200Z,6.91
2018-11-02T02:24:46.984Z,6.97
2018-11-02T02:25:47.260Z,7.06
2018-11-02T02:27:47.277Z,7.02
2018-11-02T02:29:01.928Z,6.97
2018-11-02T02:29:47.315Z,6.98
2018-11-02T02:30:47.318Z,7.06
2018-11-02T02:31:47.843Z,6.91
2018-11-02T02:32:47.421Z,6.94
2018-11-02T02:34:47.490Z,7.03
2018-11-02T02:35:47.397Z,7.02
2018-11-02T02:37:47.448Z,6.95
2018-11-02T02:38:47.468Z,6.95
2018-11-02T02:39:47.482Z,6.94
2018-11-02T02:40:47.501Z,6.97
2018-11-02T02:41:47.829Z,6.85
2018-11-02T02:42:47.506Z,6.76
2018-11-02T02:44:02.196Z,6.74
2018-11-02T02:44:47.279Z,6.77
2018-11-02T02:45:47.602Z,6.8
2018-11-02T02:46:47.594Z,6.81
2018-11-02T02:47:47.606Z,6.74
2018-11-02T02:48:47.138Z,6.74
2018-11-02T02:49:47.445Z,6.89
2018-11-02T02:50:47.719Z,6.92
2018-11-02T02:51:47.890Z,6.84
2018-11-02T02:52:47.669Z,6.8
2018-11-02T02:53:47.760Z,6.76
2018-11-02T02:54:47.720Z,6.79
2018-11-02T02:55:47.753Z,6.69
2018-11-02T02:56:47.747Z,6.71
2018-11-02T02:57:47.838Z,6.74
2018-11-02T02:58:47.779Z,6.79
2018-11-02T02:59:47.550Z,6.69
2018-11-02T03:00:47.851Z,6.69
2018-11-02T03:01:47.837Z,6.74
2018-11-02T03:02:47.854Z,6.73
2018-11-02T03:03:47.891Z,6.74
2018-11-02T03:04:47.884Z,6.85
2018-11-02T03:05:47.933Z,6.77
2018-11-02T03:07:02.572Z,6.92
2018-11-02T03:07:48.029Z,6.99
2018-11-02T03:08:47.934Z,6.98
2018-11-02T03:09:47.977Z,6.95
2018-11-02T03:10:48.736Z,6.91
2018-11-02T03:11:48.032Z,7.12
2018-11-02T03:12:48.096Z,7.02
2018-11-02T03:13:47.796Z,7.05
2018-11-02T03:14:48.057Z,7.05
2018-11-02T03:16:02.461Z,6.95
2018-11-02T03:16:48.076Z,6.98
2018-11-02T03:17:48.122Z,6.95
2018-11-02T03:19:47.868Z,6.89
2018-11-02T03:20:48.229Z,6.95
2018-11-02T03:21:48.180Z,6.91
2018-11-02T03:22:47.668Z,6.94
2018-11-02T03:23:48.189Z,6.97
2018-11-02T03:24:48.234Z,7.1
2018-11-02T03:25:47.955Z,7.09
2018-11-02T03:26:48.001Z,7.12
2018-11-02T03:27:48.001Z,7.09
2018-11-02T03:28:48.332Z,7.06
2018-11-02T03:29:48.418Z,7.1
2018-11-02T03:30:48.389Z,7.2
2018-11-02T03:32:03.007Z,7.16
2018-11-02T03:32:48.163Z,7.16
2018-11-02T03:33:48.380Z,7.12
2018-11-02T03:35:03.032Z,7.06
2018-11-02T03:35:48.421Z,7.15
2018-11-02T03:37:48.509Z,7.1
2018-11-02T03:38:48.443Z,7.09
2018-11-02T03:39:48.211Z,6.98
2018-11-02T03:40:48.213Z,6.92
2018-11-02T03:41:48.526Z,6.89
2018-11-02T03:42:48.974Z,6.97
2018-11-02T03:43:48.553Z,6.87
2018-11-02T03:44:48.535Z,6.76
2018-11-02T03:45:48.323Z,6.7
2018-11-02T03:46:48.601Z,6.76
2018-11-02T03:48:03.249Z,6.66
2018-11-02T03:48:48.356Z,6.71
2018-11-02T03:49:48.673Z,6.67
2018-11-02T03:50:48.715Z,6.64
2018-11-02T03:51:48.707Z,6.73
2018-11-02T03:52:49.249Z,6.67
2018-11-02T03:54:48.460Z,6.56
2018-11-02T03:55:48.593Z,6.51
2018-11-02T03:56:48.915Z,6.41
2018-11-02T03:57:48.782Z,6.52
2018-11-02T03:58:48.515Z,6.46
2018-11-02T03:59:48.874Z,6.4
2018-11-02T04:00:50.346Z,6.31
2018-11-02T04:01:48.855Z,6.36
2018-11-02T04:02:49.072Z,6.4
2018-11-02T04:04:03.508Z,6.41
2018-11-02T04:04:48.899Z,6.31
2018-11-02T04:05:48.907Z,6.28
2018-11-02T04:06:48.665Z,6.28
2018-11-02T04:07:48.947Z,6.21
2018-11-02T04:08:48.678Z,6.17
2018-11-02T04:09:49.393Z,6.25
2018-11-02T04:10:48.831Z,6.28
2018-11-02T04:11:49.079Z,6.31
2018-11-02T04:12:48.980Z,6.31
2018-11-02T04:14:03.682Z,6.28
2018-11-02T04:14:48.798Z,6.18
2018-11-02T04:15:48.791Z,6.21
2018-11-02T04:16:49.097Z,6.27
2018-11-02T04:19:03.779Z,6.34
2018-11-02T04:20:49.127Z,6.34
2018-11-02T04:21:48.916Z,6.28
2018-11-02T04:22:49.161Z,6.22
2018-11-02T04:23:49.573Z,6.17
2018-11-02T04:24:49.237Z,6.25
2018-11-02T04:25:49.286Z,6.31
2018-11-02T04:26:49.342Z,6.28
2018-11-02T04:27:49.083Z,6.25
2018-11-02T04:28:49.298Z,6.18
2018-11-02T04:29:49.035Z,6.36
2018-11-02T04:30:49.623Z,6.4
2018-11-02T04:32:03.976Z,6.36
2018-11-02T04:32:49.403Z,6.34
2018-11-02T04:33:49.213Z,6.31
2018-11-02T04:34:49.383Z,6.33
2018-11-02T04:35:49.146Z,6.22
2018-11-02T04:36:49.431Z,6.22
2018-11-02T04:37:49.157Z,6.27
2018-11-02T04:38:49.178Z,6.19
2018-11-02T04:39:49.506Z,6.19
2018-11-02T04:40:49.497Z,6.34
2018-11-02T04:41:49.477Z,6.28
2018-11-02T04:43:04.164Z,6.31
2018-11-02T04:43:49.781Z,6.33
2018-11-02T04:44:49.532Z,6.33
2018-11-02T04:45:49.028Z,6.31
2018-11-02T04:46:49.587Z,6.37
2018-11-02T04:47:49.620Z,6.4
2018-11-02T04:49:49.371Z,6.33
2018-11-02T04:51:04.597Z,6.4
2018-11-02T04:51:49.648Z,6.43
2018-11-02T04:52:49.423Z,6.41
2018-11-02T04:53:49.883Z,6.41
2018-11-02T04:54:50.076Z,6.34
2018-11-02T04:55:49.476Z,6.19
2018-11-02T04:57:49.532Z,6.18
2018-11-02T04:58:49.764Z,6.22
2018-11-02T04:59:49.805Z,6.17
2018-11-02T05:00:49.826Z,6.12
2018-11-02T05:02:04.465Z,6.09
2018-11-02T05:02:49.861Z,6.08
2018-11-02T05:03:49.582Z,6.09
2018-11-02T05:04:50.107Z,6.09
2018-11-02T05:05:49.889Z,6.01
2018-11-02T05:07:04.293Z,6.11
2018-11-02T05:07:49.636Z,6
2018-11-02T05:08:49.389Z,6.14
2018-11-02T05:09:50.309Z,6.03
2018-11-02T05:10:49.696Z,6.06
2018-11-02T05:12:04.641Z,6.08
2018-11-02T05:13:04.650Z,5.96
2018-11-02T05:13:50.018Z,6.08
2018-11-02T05:14:50.026Z,6.04
2018-11-02T05:15:49.770Z,6.03
2018-11-02T05:16:50.093Z,6.12
2018-11-02T05:17:49.795Z,6.09
2018-11-02T05:18:50.131Z,6.03
2018-11-02T05:19:50.120Z,6
2018-11-02T05:20:49.879Z,5.96
2018-11-02T05:21:49.861Z,5.9
2018-11-02T05:23:04.799Z,5.81
2018-11-02T05:23:50.201Z,5.68
2018-11-02T05:24:50.639Z,5.63
2018-11-02T05:25:50.224Z,5.54
2018-11-02T05:26:50.209Z,5.53
2018-11-02T05:28:04.897Z,5.71
2018-11-02T05:28:49.990Z,5.65
2018-11-02T05:29:50.293Z,5.61
2018-11-02T05:30:50.325Z,5.57
2018-11-02T05:31:50.294Z,5.54
2018-11-02T05:32:50.041Z,5.53
2018-11-02T05:33:50.080Z,5.46
2018-11-02T05:34:50.627Z,5.45
2018-11-02T05:35:50.729Z,5.51
2018-11-02T05:36:50.373Z,5.63
2018-11-02T05:37:50.423Z,5.53
2018-11-02T05:39:04.822Z,5.57
2018-11-02T05:39:50.438Z,5.53
2018-11-02T05:40:50.179Z,5.53
2018-11-02T05:41:50.480Z,5.49
2018-11-02T05:42:50.538Z,5.51
2018-11-02T05:44:50.541Z,5.56
2018-11-02T05:45:50.820Z,5.53
2018-11-02T05:46:50.557Z,5.49
2018-11-02T05:47:50.544Z,5.49
2018-11-02T05:48:50.602Z,5.45
2018-11-02T05:49:50.593Z,5.48
2018-11-02T05:50:50.655Z,5.53
2018-11-02T05:52:05.268Z,5.49
2018-11-02T05:53:05.285Z,5.42
2018-11-02T05:54:05.496Z,5.46
2018-11-02T05:54:50.656Z,5.42
2018-11-02T05:55:51.094Z,5.4
2018-11-02T05:56:50.439Z,5.42
2018-11-02T05:57:50.722Z,5.38
2018-11-02T05:58:50.753Z,5.38
2018-11-02T06:00:05.429Z,5.4
2018-11-02T06:00:50.766Z,5.39
2018-11-02T06:01:50.534Z,5.4
2018-11-02T06:02:50.787Z,5.39
2018-11-02T06:04:50.555Z,5.46
2018-11-02T06:05:51.362Z,5.4
2018-11-02T06:06:50.343Z,5.42
2018-11-02T06:07:51.212Z,5.4
2018-11-02T06:08:50.730Z,5.35
2018-11-02T06:09:50.900Z,5.33
2018-11-02T06:10:50.936Z,5.27
2018-11-02T06:11:50.974Z,5.36
2018-11-02T06:12:50.987Z,5.36
2018-11-02T06:14:05.629Z,5.31
2018-11-02T06:14:51.038Z,5.24
2018-11-02T06:15:51.187Z,5.24
2018-11-02T06:16:50.977Z,5.25
2018-11-02T06:17:51.050Z,5.31
2018-11-02T06:18:50.794Z,5.36
2018-11-02T06:20:05.777Z,5.42
2018-11-02T06:20:51.093Z,5.39
2018-11-02T06:21:51.120Z,5.28
2018-11-02T06:22:51.104Z,5.21
2018-11-02T06:23:51.145Z,5.18
2018-11-02T06:24:51.222Z,5.22
2018-11-02T06:26:05.809Z,5.3
2018-11-02T06:26:51.224Z,5.28
2018-11-02T06:27:51.213Z,5.2
2018-11-02T06:28:50.932Z,5.18
2018-11-02T06:31:51.252Z,5.22
2018-11-02T06:32:51.991Z,5.12
2018-11-02T06:33:51.278Z,5.33
2018-11-02T06:34:51.326Z,5.36
2018-11-02T06:35:51.423Z,5.33
2018-11-02T06:36:51.819Z,5.27
2018-11-02T06:37:51.136Z,5.33
2018-11-02T06:38:51.364Z,5.35
2018-11-02T06:39:51.410Z,5.39
2018-11-02T06:40:51.431Z,5.36
2018-11-02T06:42:06.073Z,5.4
2018-11-02T06:43:05.822Z,5.43
2018-11-02T06:43:51.439Z,5.4
2018-11-02T06:44:51.752Z,5.4
2018-11-02T06:45:51.476Z,5.4
2018-11-02T06:46:51.709Z,5.31
2018-11-02T06:47:51.516Z,5.35
2018-11-02T06:48:51.567Z,5.31
2018-11-02T06:49:51.534Z,5.39
2018-11-02T06:50:51.932Z,5.38
2018-11-02T06:51:51.570Z,5.43
2018-11-02T06:52:51.063Z,5.38
2018-11-02T06:53:51.611Z,5.48
2018-11-02T06:54:51.384Z,5.43
2018-11-02T06:55:51.636Z,5.48
2018-11-02T06:56:51.679Z,5.48
2018-11-02T06:58:06.323Z,5.63
2018-11-02T06:58:51.708Z,5.72
2018-11-02T06:59:52.334Z,5.81
2018-11-02T07:00:51.701Z,5.85
2018-11-02T07:01:51.753Z,5.86
2018-11-02T07:02:51.497Z,5.96
2018-11-02T07:03:51.786Z,6.04
2018-11-02T07:04:51.815Z,6.14
2018-11-02T07:05:51.549Z,6.36
2018-11-02T07:06:51.554Z,6.44
2018-11-02T07:07:52.645Z,6.58
2018-11-02T07:08:51.865Z,6.73
2018-11-02T07:09:51.624Z,6.74
2018-11-02T07:10:51.653Z,6.85
2018-11-02T07:12:51.942Z,7.09
2018-11-02T07:14:06.651Z,7.15
2018-11-02T07:14:51.700Z,7.27
2018-11-02T07:15:51.720Z,7.28
2018-11-02T07:16:51.746Z,7.37
2018-11-02T07:17:51.942Z,7.35
2018-11-02T07:18:52.187Z,7.49
2018-11-02T07:19:52.118Z,7.52
2018-11-02T07:20:51.893Z,7.63
2018-11-02T07:21:52.086Z,7.82
2018-11-02T07:22:52.126Z,7.85
2018-11-02T07:23:51.923Z,8.02
2018-11-02T07:24:52.000Z,8
2018-11-02T07:25:52.156Z,8.07
2018-11-02T07:26:52.196Z,7.97
2018-11-02T07:27:52.236Z,7.98
2018-11-02T07:29:51.985Z,7.98
2018-11-02T07:30:52.255Z,8.1
2018-11-02T07:31:52.070Z,8.07
2018-11-02T07:32:52.041Z,8.08
2018-11-02T07:33:52.415Z,8.07
2018-11-02T07:34:52.345Z,8.12
2018-11-02T07:35:52.355Z,8.11
2018-11-02T07:36:52.400Z,8.16
2018-11-02T07:37:52.401Z,8.18
2018-11-02T07:38:52.545Z,8.33
2018-11-02T07:39:52.646Z,8.29
2018-11-02T07:40:52.539Z,8.23
2018-11-02T07:41:52.451Z,8.19
2018-11-02T07:44:07.145Z,8.33
2018-11-02T07:44:52.554Z,8.33
2018-11-02T07:46:52.563Z,8.36
2018-11-02T07:47:53.038Z,8.47
2018-11-02T07:48:52.606Z,8.52
2018-11-02T07:49:53.202Z,8.5
2018-11-02T07:51:52.671Z,8.53
2018-11-02T07:52:52.725Z,8.5
2018-11-02T07:53:52.683Z,8.52
2018-11-02T07:54:52.708Z,8.62
2018-11-02T07:55:52.778Z,8.61
2018-11-02T07:56:52.750Z,8.73
2018-11-02T07:57:52.777Z,8.79
2018-11-02T07:58:52.769Z,8.87
2018-11-02T07:59:53.182Z,8.87
2018-11-02T08:01:07.496Z,9.02
2018-11-02T08:01:52.411Z,9.01
2018-11-02T08:03:07.244Z,9.15
2018-11-02T08:03:52.892Z,9.2
2018-11-02T08:04:52.662Z,9.28
2018-11-02T08:05:52.637Z,9.35
2018-11-02T08:06:52.948Z,9.39
2018-11-02T08:07:52.668Z,9.36
2018-11-02T08:08:52.713Z,9.35
2018-11-02T08:09:52.922Z,9.47
2018-11-02T08:10:53.020Z,9.56
2018-11-02T08:11:53.019Z,9.65
2018-11-02T08:12:53.051Z,9.76
2018-11-02T08:14:52.827Z,9.75
2018-11-02T08:15:53.074Z,9.81
2018-11-02T08:17:07.510Z,9.93
2018-11-02T08:17:52.995Z,10.02
2018-11-02T08:18:53.049Z,10.14
2018-11-02T08:19:53.163Z,10.17
2018-11-02T08:21:53.220Z,10.32
2018-11-02T08:22:52.950Z,10.38
2018-11-02T08:23:53.257Z,10.47
2018-11-02T08:24:53.257Z,10.59
2018-11-02T08:25:53.030Z,10.44
2018-11-02T08:26:53.041Z,10.61
2018-11-02T08:27:53.095Z,10.7
2018-11-02T08:28:53.329Z,10.68
2018-11-02T08:29:53.107Z,10.85
2018-11-02T08:30:53.119Z,10.94
2018-11-02T08:31:53.499Z,10.89
2018-11-02T08:33:08.064Z,10.86
2018-11-02T08:33:53.454Z,10.96
2018-11-02T08:34:53.442Z,11
2018-11-02T08:35:53.458Z,11.06
2018-11-02T08:36:53.514Z,11.15
2018-11-02T08:37:53.521Z,11.15
2018-11-02T08:38:53.527Z,11.17
2018-11-02T08:39:53.568Z,11.19
2018-11-02T08:40:53.298Z,11.32
2018-11-02T08:41:53.345Z,11.28
2018-11-02T08:42:53.614Z,11.27
2018-11-02T08:43:53.654Z,11.19
2018-11-02T08:44:53.634Z,11.07
2018-11-02T08:45:53.659Z,11.09
2018-11-02T08:46:53.686Z,10.97
2018-11-02T08:47:53.464Z,11
2018-11-02T08:49:53.738Z,11.03
2018-11-02T08:50:53.785Z,11.07
2018-11-02T08:51:53.775Z,11.04
2018-11-02T08:52:53.540Z,11.11
2018-11-02T08:53:53.826Z,11.17
2018-11-02T08:54:53.873Z,11.18
2018-11-02T08:55:53.635Z,11.24
2018-11-02T08:57:08.532Z,11.36
2018-11-02T08:57:54.611Z,11.49
2018-11-02T08:59:08.345Z,11.54
2018-11-02T08:59:54.115Z,11.69
2018-11-02T09:00:53.982Z,11.86
2018-11-02T09:01:54.003Z,11.96
2018-11-02T09:02:54.022Z,12.04
2018-11-02T09:04:08.414Z,12.05
2018-11-02T09:04:53.951Z,12.16
2018-11-02T09:05:54.111Z,12.29
2018-11-02T09:07:08.739Z,12.38
2018-11-02T09:07:53.859Z,12.37
2018-11-02T09:08:54.110Z,12.41
2018-11-02T09:09:54.138Z,12.45
2018-11-02T09:10:53.914Z,12.46
2018-11-02T09:11:54.268Z,12.52
2018-11-02T09:12:54.225Z,12.65
2018-11-02T09:13:53.959Z,12.7
2018-11-02T09:14:54.261Z,12.96
2018-11-02T09:15:53.995Z,12.96
2018-11-02T09:16:54.319Z,13.03
2018-11-02T09:17:54.299Z,13.22
2018-11-02T09:18:54.627Z,13.2
2018-11-02T09:19:54.107Z,13.3
2018-11-02T09:20:54.133Z,13.28
2018-11-02T09:21:54.543Z,13.3
2018-11-02T09:22:54.444Z,13.36
2018-11-02T09:24:54.521Z,13.52
2018-11-02T09:25:54.490Z,13.54
2018-11-02T09:26:54.567Z,13.54
2018-11-02T09:27:54.896Z,13.52
2018-11-02T09:28:54.520Z,13.51
2018-11-02T09:30:08.945Z,13.52
2018-11-02T09:30:54.604Z,13.45
2018-11-02T09:31:54.738Z,13.36
2018-11-02T09:32:54.110Z,13.44
2018-11-02T09:33:54.642Z,13.48
2018-11-02T09:36:09.351Z,13.41
2018-11-02T09:36:54.736Z,13.41
2018-11-02T09:37:54.733Z,13.38
2018-11-02T09:38:54.507Z,13.38
2018-11-02T09:39:54.838Z,13.44
2018-11-02T09:40:54.820Z,13.45
2018-11-02T09:41:54.539Z,13.57
2018-11-02T09:42:55.296Z,13.48
2018-11-02T09:43:54.870Z,13.55
2018-11-02T09:45:09.681Z,13.44
2018-11-02T09:45:55.041Z,13.41
2018-11-02T09:46:54.656Z,13.44
2018-11-02T09:47:54.695Z,13.48
2018-11-02T09:49:55.282Z,13.49
2018-11-02T09:50:55.009Z,13.57
2018-11-02T09:52:10.247Z,13.6
2018-11-02T09:52:55.033Z,13.49
2018-11-02T09:53:54.793Z,13.57
2018-11-02T09:54:54.842Z,13.6
2018-11-02T09:55:54.863Z,13.71
2018-11-02T09:56:55.153Z,13.77
2018-11-02T09:57:55.549Z,13.84
2018-11-02T09:58:55.184Z,13.77
2018-11-02T10:00:55.912Z,13.89
2018-11-02T10:01:55.423Z,13.77
2018-11-02T10:02:55.258Z,13.88
2018-11-02T10:03:55.269Z,13.89
2018-11-02T10:04:55.054Z,13.96
2018-11-02T10:05:55.351Z,13.89
2018-11-02T10:06:55.363Z,14.02
2018-11-02T10:08:09.998Z,13.96
2018-11-02T10:08:55.458Z,13.92
2018-11-02T10:09:55.764Z,13.95
2018-11-02T10:10:55.441Z,14.09
2018-11-02T10:12:10.096Z,14.18
2018-11-02T10:12:55.482Z,14.24
2018-11-02T10:13:55.470Z,14.17
2018-11-02T10:14:55.540Z,14.28
2018-11-02T10:15:55.518Z,14.4
2018-11-02T10:16:55.295Z,14.42
2018-11-02T10:17:55.569Z,14.39
2018-11-02T10:18:55.609Z,14.5
2018-11-02T10:19:55.656Z,14.39
2018-11-02T10:20:55.647Z,14.42
2018-11-02T10:21:55.647Z,14.45
2018-11-02T10:22:55.426Z,14.55
2018-11-02T10:24:10.082Z,14.51
2018-11-02T10:24:55.714Z,14.55
2018-11-02T10:26:55.793Z,14.57
2018-11-02T10:27:55.801Z,14.5
2018-11-02T10:28:55.826Z,14.47
2018-11-02T10:29:56.219Z,14.46
2018-11-02T10:30:55.859Z,14.5
2018-11-02T10:31:55.591Z,14.4
2018-11-02T10:32:56.024Z,14.58
2018-11-02T10:33:55.963Z,14.54
2018-11-02T10:34:55.667Z,14.37
2018-11-02T10:35:56.164Z,14.47
2018-11-02T10:37:56.028Z,14.42
2018-11-02T10:39:10.673Z,14.39
2018-11-02T10:39:56.446Z,14.46
2018-11-02T10:40:56.054Z,14.42
2018-11-02T10:41:56.107Z,14.47
2018-11-02T10:42:55.824Z,14.45
2018-11-02T10:43:55.850Z,14.43
2018-11-02T10:44:56.507Z,14.29
2018-11-02T10:45:55.960Z,14.39
2018-11-02T10:46:55.938Z,14.39
2018-11-02T10:47:56.188Z,14.42
2018-11-02T10:48:56.244Z,14.6
2018-11-02T10:49:56.536Z,14.54
2018-11-02T10:51:10.970Z,14.64
2018-11-02T10:51:56.307Z,14.51
2018-11-02T10:52:56.376Z,14.64
2018-11-02T10:53:56.346Z,14.51
2018-11-02T10:54:56.377Z,14.54
2018-11-02T10:55:56.387Z,14.54
2018-11-02T10:56:56.142Z,14.69
2018-11-02T10:57:56.140Z,14.62
2018-11-02T10:58:56.183Z,14.54
2018-11-02T10:59:56.399Z,14.54
2018-11-02T11:00:56.822Z,14.51
2018-11-02T11:01:56.219Z,14.52
2018-11-02T11:02:56.538Z,14.54
2018-11-02T11:03:56.542Z,14.61
2018-11-02T11:04:56.310Z,14.6
2018-11-02T11:05:56.575Z,14.55
2018-11-02T11:06:56.595Z,14.54
2018-11-02T11:07:56.651Z,14.5
2018-11-02T11:08:56.682Z,14.47
2018-11-02T11:09:57.232Z,14.52
2018-11-02T11:11:11.330Z,14.5
2018-11-02T11:12:11.267Z,14.54
2018-11-02T11:12:58.435Z,14.52
2018-11-02T11:13:56.479Z,14.51
2018-11-02T11:15:11.434Z,14.6
2018-11-02T11:15:56.828Z,14.62
2018-11-02T11:16:56.849Z,14.61
2018-11-02T11:17:56.857Z,14.51
2018-11-02T11:18:56.868Z,14.57
2018-11-02T11:19:57.459Z,14.54
2018-11-02T11:20:56.650Z,14.54
2018-11-02T11:21:56.918Z,14.46
2018-11-02T11:22:56.980Z,14.51
2018-11-02T11:23:56.692Z,14.42
2018-11-02T11:24:57.008Z,14.46
2018-11-02T11:25:57.039Z,14.37
2018-11-02T11:27:11.702Z,14.29
2018-11-02T11:27:57.094Z,14.33
2018-11-02T11:28:57.076Z,14.24
2018-11-02T11:30:57.125Z,14.33
2018-11-02T11:31:57.145Z,14.42
2018-11-02T11:32:57.154Z,14.45
2018-11-02T11:33:57.207Z,14.47
2018-11-02T11:34:57.251Z,14.42
2018-11-02T11:35:57.296Z,14.45
2018-11-02T11:36:57.260Z,14.4
2018-11-02T11:37:56.998Z,14.37
2018-11-02T11:38:57.319Z,14.33
2018-11-02T11:39:57.764Z,14.32
2018-11-02T11:40:57.346Z,14.17
2018-11-02T11:43:12.036Z,14.27
2018-11-02T11:43:57.112Z,14.21
2018-11-02T11:44:57.134Z,14.36
2018-11-02T11:45:57.461Z,14.25
2018-11-02T11:46:57.482Z,14.28
2018-11-02T11:47:57.469Z,14.28
2018-11-02T11:48:58.208Z,14.25
2018-11-02T11:49:57.999Z,14.28
2018-11-02T11:50:57.568Z,14.25
2018-11-02T11:51:57.385Z,14.25
2018-11-02T11:52:57.618Z,14.14
2018-11-02T11:53:57.594Z,14.17
2018-11-02T11:55:12.267Z,14.18
2018-11-02T11:55:57.388Z,14.24
2018-11-02T11:56:57.674Z,14.29
2018-11-02T11:57:57.709Z,14.4
2018-11-02T11:59:12.342Z,14.46
2018-11-02T11:59:58.079Z,14.5
2018-11-02T12:00:57.792Z,14.6
2018-11-02T12:01:57.773Z,14.6
2018-11-02T12:02:57.814Z,14.62
2018-11-02T12:03:57.553Z,14.64
2018-11-02T12:04:58.194Z,14.64
2018-11-02T12:05:57.592Z,14.52
2018-11-02T12:06:57.897Z,14.46
2018-11-02T12:07:57.887Z,14.52
2018-11-02T12:08:57.937Z,14.46
2018-11-02T12:09:58.161Z,14.47
2018-11-02T12:10:57.989Z,14.37
2018-11-02T12:12:58.024Z,14.46
2018-11-02T12:14:12.694Z,14.45
2018-11-02T12:14:57.776Z,14.39
2018-11-02T12:15:58.431Z,14.47
2018-11-02T12:17:58.132Z,14.55
2018-11-02T12:18:58.185Z,14.5
2018-11-02T12:19:57.982Z,14.64
2018-11-02T12:20:58.164Z,14.55
2018-11-02T12:21:58.162Z,14.55
2018-11-02T12:22:58.247Z,14.5
2018-11-02T12:23:58.261Z,14.51
2018-11-02T12:24:57.993Z,14.5
2018-11-02T12:25:58.293Z,14.45
2018-11-02T12:26:58.313Z,14.5
2018-11-02T12:27:58.322Z,14.32
2018-11-02T12:29:58.288Z,14.36
2018-11-02T12:30:58.406Z,14.35
2018-11-02T12:31:58.401Z,14.37
2018-11-02T12:32:58.437Z,14.28
2018-11-02T12:33:58.441Z,14.21
2018-11-02T12:34:58.491Z,14.42
2018-11-02T12:35:58.511Z,14.43
2018-11-02T12:36:58.406Z,14.5
2018-11-02T12:37:58.267Z,14.42
2018-11-02T12:39:58.809Z,14.5
2018-11-02T12:40:58.318Z,14.54
2018-11-02T12:41:58.635Z,14.39
2018-11-02T12:42:58.963Z,14.39
2018-11-02T12:44:58.686Z,14.51
2018-11-02T12:46:13.365Z,14.51
2018-11-02T12:47:58.715Z,14.62
2018-11-02T12:48:59.924Z,14.51
2018-11-02T12:49:59.577Z,14.65
2018-11-02T12:50:58.919Z,14.58
2018-11-02T12:51:58.844Z,14.6
2018-11-02T12:52:58.874Z,14.7
2018-11-02T12:53:58.860Z,14.5
2018-11-02T12:54:58.906Z,14.61
2018-11-02T12:55:58.903Z,14.58
2018-11-02T12:57:59.056Z,14.51
2018-11-02T12:58:58.993Z,14.54
2018-11-02T12:59:59.051Z,14.6
2018-11-02T13:00:59.262Z,14.64
2018-11-02T13:02:13.687Z,14.61
2018-11-02T13:03:59.077Z,14.62
2018-11-02T13:04:58.824Z,14.64
2018-11-02T13:05:59.146Z,14.68
2018-11-02T13:07:59.165Z,14.61
2018-11-02T13:09:58.926Z,14.64
2018-11-02T13:10:59.617Z,14.64
2018-11-02T13:11:59.259Z,14.68
2018-11-02T13:12:59.271Z,14.68
2018-11-02T13:13:59.313Z,14.6
2018-11-02T13:14:59.332Z,14.65
2018-11-02T13:15:59.324Z,14.68
2018-11-02T13:16:59.383Z,14.64
2018-11-02T13:18:14.179Z,14.58
2018-11-02T13:18:59.417Z,14.61
2018-11-02T13:19:59.273Z,14.69
2018-11-02T13:20:59.571Z,14.72
2018-11-02T13:22:59.232Z,14.78
2018-11-02T13:23:59.252Z,14.78
2018-11-02T13:24:59.547Z,14.7
2018-11-02T13:26:00.300Z,14.8
2018-11-02T13:28:14.259Z,14.96
2018-11-02T13:28:59.322Z,14.83
2018-11-02T13:29:59.861Z,14.78
2018-11-02T13:31:14.649Z,14.75
2018-11-02T13:32:00.233Z,14.8
2018-11-02T13:32:59.716Z,14.83
2018-11-02T13:34:14.590Z,14.72
2018-11-02T13:34:59.497Z,14.7
2018-11-02T13:36:14.183Z,14.69
2018-11-02T13:37:00.037Z,14.58
2018-11-02T13:37:59.800Z,14.68
2018-11-02T13:38:59.837Z,14.62
2018-11-02T13:39:59.841Z,14.65
2018-11-02T13:40:59.607Z,14.7
2018-11-02T13:43:00.222Z,14.61
2018-11-02T13:43:59.674Z,14.64
2018-11-02T13:44:59.947Z,14.73
2018-11-02T13:45:59.687Z,14.78
2018-11-02T13:47:00.002Z,14.81
2018-11-02T13:48:00.028Z,14.84
2018-11-02T13:50:00.035Z,14.75
2018-11-02T13:50:59.813Z,14.77
2018-11-02T13:51:59.981Z,14.77
2018-11-02T13:53:00.122Z,14.77
2018-11-02T13:54:00.147Z,14.81
2018-11-02T13:55:00.150Z,14.89
2018-11-02T13:56:00.220Z,14.84
2018-11-02T13:56:59.955Z,14.89
2018-11-02T13:57:59.943Z,14.89
2018-11-02T13:59:00.352Z,14.81
2018-11-02T14:00:00.136Z,14.73
2018-11-02T14:01:00.047Z,14.81
2018-11-02T14:02:00.518Z,14.8
2018-11-02T14:03:00.339Z,14.86
2018-11-02T14:04:00.336Z,14.89
2018-11-02T14:05:00.388Z,14.8
2018-11-02T14:06:00.390Z,14.75
2018-11-02T14:07:00.700Z,14.81